Wetterdaten: aktuell Samstag, 20.07.2024 15:40
Datum Zeit Temp. Feuchte Luftdruck Regen Wind Richtung Richtung UV Solar Windben
20.07.2024 15:40 31.3 C 46 % 1009.5 hPa 0.0 mm 1.5 km/h (1 Bft) O 84 4.3 UV-I 766.0 W/m 11.3 km/h (2 Bft)
20.07.2024 15:30 31.7 C 43 % 1009.4 hPa 0.0 mm 3.7 km/h (1 Bft) S-SW 197 4.4 UV-I 777.0 W/m 8.0 km/h (2 Bft)
20.07.2024 15:20 31.5 C 44 % 1009.6 hPa 0.0 mm 4.0 km/h (1 Bft) SO 132 4.7 UV-I 798.0 W/m 12.9 km/h (3 Bft)
20.07.2024 15:10 31.9 C 43 % 1009.7 hPa 0.0 mm 5.9 km/h (2 Bft) W-NW 296 4.8 UV-I 807.0 W/m 14.5 km/h (3 Bft)
20.07.2024 15:00 31.6 C 46 % 1009.8 hPa 0.0 mm 5.5 km/h (1 Bft) W-NW 299 5.1 UV-I 842.0 W/m 12.9 km/h (3 Bft)
20.07.2024 14:50 31.0 C 49 % 1009.9 hPa 0.0 mm 0.5 km/h (0 Bft) W-SW 253 5.0 UV-I 828.0 W/m 11.3 km/h (2 Bft)
20.07.2024 14:40 31.1 C 45 % 1010.0 hPa 0.0 mm 4.5 km/h (1 Bft) S 189 5.2 UV-I 835.0 W/m 11.3 km/h (2 Bft)
20.07.2024 14:30 31.2 C 46 % 1010.1 hPa 0.0 mm 6.4 km/h (2 Bft) SW 228 5.4 UV-I 860.0 W/m 12.9 km/h (3 Bft)
20.07.2024 14:20 30.4 C 49 % 1010.2 hPa 0.0 mm 3.4 km/h (1 Bft) O 84 5.5 UV-I 861.0 W/m 11.3 km/h (2 Bft)
20.07.2024 14:10 30.7 C 49 % 1010.3 hPa 0.0 mm 4.1 km/h (1 Bft) S 190 5.5 UV-I 865.0 W/m 8.0 km/h (2 Bft)
20.07.2024 14:00 30.7 C 51 % 1010.5 hPa 0.0 mm 5.0 km/h (1 Bft) W-SW 250 5.5 UV-I 863.0 W/m 11.3 km/h (2 Bft)
20.07.2024 13:50 30.5 C 49 % 1010.5 hPa 0.0 mm 4.3 km/h (1 Bft) SW 220 5.6 UV-I 877.0 W/m 11.3 km/h (2 Bft)
20.07.2024 13:40 30.4 C 50 % 1010.6 hPa 0.0 mm 6.0 km/h (2 Bft) W-SW 244 5.6 UV-I 872.0 W/m 14.5 km/h (3 Bft)
20.07.2024 13:30 29.8 C 54 % 1010.8 hPa 0.0 mm 2.4 km/h (1 Bft) NW 311 5.6 UV-I 868.0 W/m 9.7 km/h (2 Bft)
20.07.2024 13:20 30.4 C 52 % 1010.9 hPa 0.0 mm 5.9 km/h (2 Bft) NW 306 5.6 UV-I 877.0 W/m 12.9 km/h (3 Bft)
20.07.2024 13:10 29.8 C 54 % 1011.0 hPa 0.0 mm 2.9 km/h (1 Bft) W-SW 255 5.5 UV-I 868.0 W/m 6.4 km/h (2 Bft)
20.07.2024 13:00 29.6 C 54 % 1011.2 hPa 0.0 mm 4.6 km/h (1 Bft) N-NO 12 5.5 UV-I 870.0 W/m 9.7 km/h (2 Bft)
20.07.2024 12:50 29.4 C 54 % 1011.3 hPa 0.0 mm 3.9 km/h (1 Bft) W-NW 294 5.4 UV-I 861.0 W/m 12.9 km/h (3 Bft)
20.07.2024 12:40 28.9 C 58 % 1011.4 hPa 0.0 mm 4.2 km/h (1 Bft) O-SO 111 5.2 UV-I 844.0 W/m 11.3 km/h (2 Bft)
20.07.2024 12:30 28.6 C 59 % 1011.5 hPa 0.0 mm 3.4 km/h (1 Bft) O 86 5.1 UV-I 838.0 W/m 8.0 km/h (2 Bft)
20.07.2024 12:20 28.4 C 63 % 1011.6 hPa 0.0 mm 3.9 km/h (1 Bft) O 86 5.0 UV-I 831.0 W/m 11.3 km/h (2 Bft)
20.07.2024 12:10 28.3 C 61 % 1011.8 hPa 0.0 mm 3.7 km/h (1 Bft) O 86 4.9 UV-I 817.0 W/m 9.7 km/h (2 Bft)
20.07.2024 12:00 28.3 C 62 % 1012.0 hPa 0.0 mm 3.1 km/h (1 Bft) NW 309 4.7 UV-I 805.0 W/m 8.0 km/h (2 Bft)
20.07.2024 11:50 27.9 C 61 % 1012.2 hPa 0.0 mm 3.4 km/h (1 Bft) SW 233 4.5 UV-I 789.0 W/m 8.0 km/h (2 Bft)
20.07.2024 11:40 27.9 C 64 % 1012.4 hPa 0.0 mm 3.7 km/h (1 Bft) W-NW 289 4.3 UV-I 772.0 W/m 9.7 km/h (2 Bft)
20.07.2024 11:30 27.6 C 62 % 1012.3 hPa 0.0 mm 4.4 km/h (1 Bft) S-SW 193 4.2 UV-I 758.0 W/m 9.7 km/h (2 Bft)
20.07.2024 11:20 27.3 C 64 % 1012.5 hPa 0.0 mm 5.1 km/h (1 Bft) W 265 4.0 UV-I 744.0 W/m 12.9 km/h (3 Bft)
20.07.2024 11:10 26.8 C 64 % 1012.5 hPa 0.0 mm 2.8 km/h (1 Bft) SW 219 3.8 UV-I 724.0 W/m 8.0 km/h (2 Bft)
20.07.2024 11:00 26.7 C 65 % 1012.5 hPa 0.0 mm 2.7 km/h (1 Bft) W-SW 238 3.5 UV-I 707.0 W/m 8.0 km/h (2 Bft)
20.07.2024 10:50 26.3 C 65 % 1012.6 hPa 0.0 mm 6.2 km/h (2 Bft) SW 234 3.3 UV-I 682.0 W/m 16.1 km/h (3 Bft)
20.07.2024 10:40 26.2 C 65 % 1012.6 hPa 0.0 mm 4.4 km/h (1 Bft) NW 316 3.1 UV-I 666.0 W/m 12.9 km/h (3 Bft)
20.07.2024 10:30 25.8 C 68 % 1012.7 hPa 0.0 mm 5.0 km/h (1 Bft) W 265 2.9 UV-I 643.0 W/m 11.3 km/h (2 Bft)
20.07.2024 10:20 25.6 C 68 % 1012.7 hPa 0.0 mm 6.1 km/h (2 Bft) SW 215 2.7 UV-I 612.0 W/m 14.5 km/h (3 Bft)
20.07.2024 10:10 24.9 C 70 % 1012.7 hPa 0.0 mm 1.6 km/h (1 Bft) SW 234 2.5 UV-I 605.0 W/m 8.0 km/h (2 Bft)
20.07.2024 10:00 24.2 C 72 % 1012.9 hPa 0.0 mm 1.9 km/h (1 Bft) SW 236 2.3 UV-I 578.0 W/m 8.0 km/h (2 Bft)
20.07.2024 09:50 23.9 C 74 % 1012.9 hPa 0.0 mm 2.9 km/h (1 Bft) W 273 2.1 UV-I 555.0 W/m 9.7 km/h (2 Bft)
20.07.2024 09:40 23.6 C 77 % 1013.0 hPa 0.0 mm 2.0 km/h (1 Bft) W-NW 286 1.9 UV-I 522.0 W/m 4.8 km/h (1 Bft)
20.07.2024 09:30 23.4 C 76 % 1013.1 hPa 0.0 mm 3.7 km/h (1 Bft) SW 234 1.7 UV-I 503.0 W/m 9.7 km/h (2 Bft)
20.07.2024 09:20 22.6 C 79 % 1013.2 hPa 0.0 mm 3.1 km/h (1 Bft) W-NW 296 1.4 UV-I 443.0 W/m 6.4 km/h (2 Bft)
20.07.2024 09:10 22.2 C 79 % 1013.1 hPa 0.0 mm 3.0 km/h (1 Bft) NW 304 1.0 UV-I 149.0 W/m 6.4 km/h (2 Bft)
20.07.2024 09:00 21.9 C 79 % 1013.2 hPa 0.0 mm 3.2 km/h (1 Bft) NW 309 0.9 UV-I 287.0 W/m 6.4 km/h (2 Bft)
20.07.2024 08:50 21.8 C 80 % 1013.2 hPa 0.0 mm 0.2 km/h (0 Bft) NW 314 0.9 UV-I 209.0 W/m 4.8 km/h (1 Bft)
20.07.2024 08:40 21.3 C 82 % 1013.2 hPa 0.0 mm 0.0 km/h (0 Bft) N 9 1.0 UV-I 396.0 W/m 0.0 km/h (0 Bft)
20.07.2024 08:30 20.8 C 83 % 1013.3 hPa 0.0 mm 0.0 km/h (0 Bft) N 9 0.8 UV-I 329.0 W/m 0.0 km/h (0 Bft)
20.07.2024 08:20 20.4 C 85 % 1013.2 hPa 0.0 mm 0.0 km/h (0 Bft) N 9 0.7 UV-I 297.0 W/m 0.0 km/h (0 Bft)
20.07.2024 08:10 20.1 C 86 % 1013.3 hPa 0.0 mm 0.3 km/h (0 Bft) N 9 0.6 UV-I 267.0 W/m 3.2 km/h (1 Bft)
20.07.2024 08:00 19.7 C 87 % 1013.2 hPa 0.0 mm 0.9 km/h (0 Bft) N 9 0.5 UV-I 237.0 W/m 3.2 km/h (1 Bft)
20.07.2024 07:50 19.3 C 89 % 1013.3 hPa 0.0 mm 1.2 km/h (1 Bft) N 9 0.0 UV-I 209.0 W/m 4.8 km/h (1 Bft)
20.07.2024 07:40 18.7 C 91 % 1013.3 hPa 0.0 mm 0.1 km/h (0 Bft) N 9 0.0 UV-I 174.0 W/m 1.6 km/h (1 Bft)
20.07.2024 07:30 18.2 C 93 % 1013.5 hPa 0.0 mm 0.0 km/h (0 Bft) N 9 0.0 UV-I 151.0 W/m 1.6 km/h (1 Bft)
20.07.2024 07:20 17.8 C 94 % 1013.4 hPa 0.0 mm 0.0 km/h (0 Bft) O 93 0.0 UV-I 130.0 W/m 0.0 km/h (0 Bft)
20.07.2024 07:10 17.4 C 94 % 1013.4 hPa 0.0 mm 0.0 km/h (0 Bft) O 93 0.0 UV-I 105.0 W/m 0.0 km/h (0 Bft)
20.07.2024 07:00 17.1 C 94 % 1013.5 hPa 0.0 mm 0.0 km/h (0 Bft) O 93 0.0 UV-I 81.0 W/m 0.0 km/h (0 Bft)
20.07.2024 06:50 16.8 C 94 % 1013.6 hPa 0.0 mm 0.0 km/h (0 Bft) O 93 0.0 UV-I 54.0 W/m 0.0 km/h (0 Bft)
20.07.2024 06:40 16.7 C 94 % 1013.6 hPa 0.0 mm 0.0 km/h (0 Bft) O 93 0.0 UV-I 42.0 W/m 0.0 km/h (0 Bft)
20.07.2024 06:30 16.7 C 94 % 1013.7 hPa 0.0 mm 0.0 km/h (0 Bft) O 93 0.0 UV-I 28.0 W/m 0.0 km/h (0 Bft)
20.07.2024 06:20 16.5 C 94 % 1013.8 hPa 0.0 mm 0.0 km/h (0 Bft) O 93 0.0 UV-I 21.0 W/m 0.0 km/h (0 Bft)
20.07.2024 06:10 16.5 C 93 % 1013.8 hPa 0.0 mm 0.0 km/h (0 Bft) O 93 0.0 UV-I 12.0 W/m 0.0 km/h (0 Bft)
20.07.2024 06:00 16.7 C 94 % 1013.8 hPa 0.0 mm 0.0 km/h (0 Bft) O 93 0.0 UV-I 5.0 W/m 0.0 km/h (0 Bft)
20.07.2024 05:50 16.6 C 93 % 1013.8 hPa 0.0 mm 0.0 km/h (0 Bft) O 88 0.0 UV-I 0.0 W/m 0.0 km/h (0 Bft)
20.07.2024 05:40 16.7 C 94 % 1013.9 hPa 0.0 mm 0.0 km/h (0 Bft) O 88 0.0 UV-I 0.0 W/m 0.0 km/h (0 Bft)
20.07.2024 05:30 16.6 C 93 % 1013.8 hPa 0.0 mm 0.0 km/h (0 Bft) O 88 0.0 UV-I 0.0 W/m 0.0 km/h (0 Bft)
20.07.2024 05:20 16.8 C 93 % 1013.9 hPa 0.0 mm 0.0 km/h (0 Bft) O 88 0.0 UV-I 0.0 W/m 0.0 km/h (0 Bft)
20.07.2024 05:10 16.9 C 93 % 1013.9 hPa 0.0 mm 0.0 km/h (0 Bft) O 88 0.0 UV-I 0.0 W/m 0.0 km/h (0 Bft)
20.07.2024 05:00 16.9 C 93 % 1013.9 hPa 0.0 mm 0.0 km/h (0 Bft) O 88 0.0 UV-I 0.0 W/m 0.0 km/h (0 Bft)
20.07.2024 04:50 16.8 C 93 % 1013.8 hPa 0.0 mm 0.0 km/h (0 Bft) O 88 0.0 UV-I 0.0 W/m 0.0 km/h (0 Bft)
20.07.2024 04:40 16.9 C 93 % 1014.0 hPa 0.0 mm 0.0 km/h (0 Bft) O 88 0.0 UV-I 0.0 W/m 0.0 km/h (0 Bft)
20.07.2024 04:30 17.0 C 92 % 1014.1 hPa 0.0 mm 0.0 km/h (0 Bft) O 88 0.0 UV-I 0.0 W/m 0.0 km/h (0 Bft)
20.07.2024 04:20 17.1 C 92 % 1014.1 hPa 0.0 mm 0.0 km/h (0 Bft) O 88 0.0 UV-I 0.0 W/m 0.0 km/h (0 Bft)
20.07.2024 04:10 17.2 C 92 % 1014.0 hPa 0.0 mm 0.0 km/h (0 Bft) O 88 0.0 UV-I 0.0 W/m 0.0 km/h (0 Bft)
20.07.2024 04:00 17.3 C 92 % 1014.0 hPa 0.0 mm 0.1 km/h (0 Bft) O 88 0.0 UV-I 0.0 W/m 1.6 km/h (1 Bft)
20.07.2024 03:50 17.3 C 92 % 1014.1 hPa 0.0 mm 2.0 km/h (1 Bft) O 88 0.0 UV-I 0.0 W/m 4.8 km/h (1 Bft)
20.07.2024 03:40 17.4 C 91 % 1014.1 hPa 0.0 mm 0.2 km/h (0 Bft) O 88 0.0 UV-I 0.0 W/m 4.8 km/h (1 Bft)
20.07.2024 03:30 17.4 C 91 % 1014.2 hPa 0.0 mm 0.0 km/h (0 Bft) O 88 0.0 UV-I 0.0 W/m 0.0 km/h (0 Bft)
20.07.2024 03:20 17.5 C 91 % 1014.3 hPa 0.0 mm 0.0 km/h (0 Bft) O 88 0.0 UV-I 0.0 W/m 0.0 km/h (0 Bft)
20.07.2024 03:10 17.6 C 90 % 1014.5 hPa 0.0 mm 0.0 km/h (0 Bft) O 88 0.0 UV-I 0.0 W/m 0.0 km/h (0 Bft)
20.07.2024 03:00 17.7 C 90 % 1014.4 hPa 0.0 mm 0.0 km/h (0 Bft) O 88 0.0 UV-I 0.0 W/m 0.0 km/h (0 Bft)
20.07.2024 02:50 17.8 C 90 % 1014.6 hPa 0.0 mm 0.0 km/h (0 Bft) O 88 0.0 UV-I 0.0 W/m 0.0 km/h (0 Bft)
20.07.2024 02:40 18.1 C 89 % 1014.7 hPa 0.0 mm 0.0 km/h (0 Bft) O 88 0.0 UV-I 0.0 W/m 0.0 km/h (0 Bft)
20.07.2024 02:30 18.2 C 89 % 1014.6 hPa 0.0 mm 0.0 km/h (0 Bft) O 88 0.0 UV-I 0.0 W/m 0.0 km/h (0 Bft)
20.07.2024 02:20 18.4 C 88 % 1014.8 hPa 0.0 mm 0.0 km/h (0 Bft) O 88 0.0 UV-I 0.0 W/m 0.0 km/h (0 Bft)
20.07.2024 02:10 18.6 C 88 % 1014.8 hPa 0.0 mm 0.0 km/h (0 Bft) O 88 0.0 UV-I 0.0 W/m 0.0 km/h (0 Bft)
20.07.2024 02:00 18.7 C 88 % 1014.9 hPa 0.0 mm 0.3 km/h (0 Bft) O 88 0.0 UV-I 0.0 W/m 3.2 km/h (1 Bft)
20.07.2024 01:50 18.8 C 87 % 1014.9 hPa 0.0 mm 1.2 km/h (1 Bft) O 88 0.0 UV-I 0.0 W/m 4.8 km/h (1 Bft)
20.07.2024 01:40 18.9 C 87 % 1015.1 hPa 0.0 mm 0.0 km/h (0 Bft) O 88 0.0 UV-I 0.0 W/m 0.0 km/h (0 Bft)
20.07.2024 01:30 19.0 C 86 % 1015.2 hPa 0.0 mm 0.3 km/h (0 Bft) O 88 0.0 UV-I 0.0 W/m 3.2 km/h (1 Bft)
20.07.2024 01:20 19.2 C 86 % 1015.2 hPa 0.0 mm 0.7 km/h (0 Bft) O 88 0.0 UV-I 0.0 W/m 4.8 km/h (1 Bft)
20.07.2024 01:10 19.3 C 85 % 1015.4 hPa 0.0 mm 2.2 km/h (1 Bft) O 88 0.0 UV-I 0.0 W/m 6.4 km/h (2 Bft)
20.07.2024 01:00 19.6 C 84 % 1015.4 hPa 0.0 mm 3.2 km/h (1 Bft) O 90 0.0 UV-I 0.0 W/m 9.7 km/h (2 Bft)
20.07.2024 00:50 19.9 C 83 % 1015.4 hPa 0.0 mm 1.5 km/h (1 Bft) O 101 0.0 UV-I 0.0 W/m 4.8 km/h (1 Bft)
20.07.2024 00:40 19.9 C 83 % 1015.5 hPa 0.0 mm 1.4 km/h (1 Bft) O 98 0.0 UV-I 0.0 W/m 4.8 km/h (1 Bft)
20.07.2024 00:30 19.9 C 83 % 1015.6 hPa 0.0 mm 1.7 km/h (1 Bft) O 98 0.0 UV-I 0.0 W/m 4.8 km/h (1 Bft)
20.07.2024 00:20 20.2 C 83 % 1015.8 hPa 0.0 mm 2.1 km/h (1 Bft) O-NO 77 0.0 UV-I 0.0 W/m 6.4 km/h (2 Bft)
20.07.2024 00:10 20.3 C 82 % 1015.9 hPa 0.0 mm 1.3 km/h (1 Bft) O 92 0.0 UV-I 0.0 W/m 4.8 km/h (1 Bft)
20.07.2024 00:00 20.4 C 82 % 1015.8 hPa 0.0 mm 0.9 km/h (0 Bft) O 92 0.0 UV-I 0.0 W/m 3.2 km/h (1 Bft)
19.07.2024 23:50 20.4 C 81 % 1016.0 hPa 0.0 mm 1.2 km/h (1 Bft) O 92 0.0 UV-I 0.0 W/m 4.8 km/h (1 Bft)
19.07.2024 23:40 20.2 C 82 % 1015.9 hPa 0.0 mm 1.3 km/h (1 Bft) O 94 0.0 UV-I 0.0 W/m 4.8 km/h (1 Bft)
19.07.2024 23:30 20.3 C 82 % 1015.9 hPa 0.0 mm 2.4 km/h (1 Bft) O 94 0.0 UV-I 0.0 W/m 4.8 km/h (1 Bft)
19.07.2024 23:20 20.7 C 80 % 1015.9 hPa 0.0 mm 0.1 km/h (0 Bft) O 94 0.0 UV-I 0.0 W/m 3.2 km/h (1 Bft)
19.07.2024 23:10 20.8 C 78 % 1015.8 hPa 0.0 mm 0.0 km/h (0 Bft) O 94 0.0 UV-I 0.0 W/m 0.0 km/h (0 Bft)
19.07.2024 23:00 21.1 C 78 % 1015.9 hPa 0.0 mm 0.0 km/h (0 Bft) O 94 0.0 UV-I 0.0 W/m 0.0 km/h (0 Bft)
19.07.2024 22:50 21.7 C 76 % 1015.8 hPa 0.0 mm 0.0 km/h (0 Bft) O 94 0.0 UV-I 0.0 W/m 1.6 km/h (1 Bft)
19.07.2024 22:40 22.0 C 74 % 1015.8 hPa 0.0 mm 0.0 km/h (0 Bft) O-SO 123 0.0 UV-I 0.0 W/m 0.0 km/h (0 Bft)
19.07.2024 22:30 21.8 C 74 % 1015.8 hPa 0.0 mm 0.0 km/h (0 Bft) O 82 0.0 UV-I 0.0 W/m 0.0 km/h (0 Bft)
19.07.2024 22:20 22.1 C 74 % 1015.7 hPa 0.0 mm 0.0 km/h (0 Bft) O 82 0.0 UV-I 0.0 W/m 0.0 km/h (0 Bft)
19.07.2024 22:10 22.4 C 74 % 1015.7 hPa 0.0 mm 1.0 km/h (0 Bft) O 82 0.0 UV-I 0.0 W/m 4.8 km/h (1 Bft)
19.07.2024 22:00 22.9 C 72 % 1015.8 hPa 0.0 mm 2.7 km/h (1 Bft) O 82 0.0 UV-I 0.0 W/m 6.4 km/h (2 Bft)
19.07.2024 21:50 23.2 C 71 % 1015.7 hPa 0.0 mm 1.6 km/h (1 Bft) SO 138 0.0 UV-I 0.0 W/m 6.4 km/h (2 Bft)
19.07.2024 21:40 23.5 C 70 % 1015.7 hPa 0.0 mm 0.0 km/h (0 Bft) SO 140 0.0 UV-I 0.0 W/m 0.0 km/h (0 Bft)
19.07.2024 21:30 24.0 C 67 % 1015.7 hPa 0.0 mm 0.0 km/h (0 Bft) S-SW 202 0.0 UV-I 0.0 W/m 0.0 km/h (0 Bft)
19.07.2024 21:20 24.2 C 65 % 1015.7 hPa 0.0 mm 0.0 km/h (0 Bft) NW 304 0.0 UV-I 5.0 W/m 0.0 km/h (0 Bft)
19.07.2024 21:10 24.6 C 63 % 1015.7 hPa 0.0 mm 0.0 km/h (0 Bft) O-SO 108 0.0 UV-I 11.0 W/m 0.0 km/h (0 Bft)
19.07.2024 21:00 24.9 C 64 % 1015.6 hPa 0.0 mm 0.0 km/h (0 Bft) O-SO 108 0.0 UV-I 19.0 W/m 0.0 km/h (0 Bft)
19.07.2024 20:50 25.3 C 65 % 1015.6 hPa 0.0 mm 0.0 km/h (0 Bft) W 271 0.0 UV-I 28.0 W/m 0.0 km/h (0 Bft)
19.07.2024 20:40 25.9 C 63 % 1015.5 hPa 0.0 mm 0.5 km/h (0 Bft) W 271 0.0 UV-I 33.0 W/m 3.2 km/h (1 Bft)
19.07.2024 20:30 26.8 C 63 % 1015.3 hPa 0.0 mm 1.9 km/h (1 Bft) W 271 0.0 UV-I 39.0 W/m 4.8 km/h (1 Bft)
19.07.2024 20:20 27.7 C 60 % 1015.3 hPa 0.0 mm 1.2 km/h (1 Bft) W 271 0.0 UV-I 44.0 W/m 9.7 km/h (2 Bft)
19.07.2024 20:10 28.0 C 57 % 1015.3 hPa 0.0 mm 0.0 km/h (0 Bft) W-SW 254 0.0 UV-I 51.0 W/m 1.6 km/h (1 Bft)
19.07.2024 20:00 28.5 C 53 % 1015.2 hPa 0.0 mm 0.0 km/h (0 Bft) N-NW 333 0.0 UV-I 114.0 W/m 0.0 km/h (0 Bft)
19.07.2024 19:50 28.8 C 59 % 1015.1 hPa 0.0 mm 0.9 km/h (0 Bft) N-NW 333 0.0 UV-I 144.0 W/m 4.8 km/h (1 Bft)
19.07.2024 19:40 29.3 C 53 % 1015.1 hPa 0.0 mm 3.3 km/h (1 Bft) NW 325 0.0 UV-I 186.0 W/m 6.4 km/h (2 Bft)
19.07.2024 19:30 29.6 C 50 % 1015.3 hPa 0.0 mm 5.9 km/h (2 Bft) NW 309 0.0 UV-I 220.0 W/m 11.3 km/h (2 Bft)
19.07.2024 19:20 29.4 C 51 % 1015.2 hPa 0.0 mm 4.4 km/h (1 Bft) NW 305 0.5 UV-I 281.0 W/m 11.3 km/h (2 Bft)
19.07.2024 19:10 29.0 C 52 % 1015.3 hPa 0.0 mm 3.8 km/h (1 Bft) W 268 0.6 UV-I 309.0 W/m 9.7 km/h (2 Bft)
19.07.2024 19:00 28.9 C 55 % 1015.4 hPa 0.0 mm 4.5 km/h (1 Bft) NW 308 0.5 UV-I 211.0 W/m 9.7 km/h (2 Bft)
19.07.2024 18:50 28.8 C 54 % 1015.4 hPa 0.0 mm 5.9 km/h (2 Bft) W-NW 301 0.6 UV-I 171.0 W/m 12.9 km/h (3 Bft)
19.07.2024 18:40 29.1 C 54 % 1015.6 hPa 0.0 mm 4.4 km/h (1 Bft) N-NW 331 0.6 UV-I 153.0 W/m 9.7 km/h (2 Bft)
19.07.2024 18:30 29.6 C 53 % 1015.5 hPa 0.0 mm 7.2 km/h (2 Bft) N-NW 336 0.7 UV-I 155.0 W/m 16.1 km/h (3 Bft)
19.07.2024 18:20 29.7 C 53 % 1015.6 hPa 0.0 mm 9.5 km/h (2 Bft) NW 311 1.2 UV-I 508.0 W/m 19.3 km/h (3 Bft)
19.07.2024 18:10 29.8 C 55 % 1015.5 hPa 0.0 mm 5.2 km/h (1 Bft) NW 325 1.0 UV-I 290.0 W/m 14.5 km/h (3 Bft)
19.07.2024 18:00 30.4 C 51 % 1015.6 hPa 0.0 mm 5.2 km/h (1 Bft) N 355 1.0 UV-I 230.0 W/m 12.9 km/h (3 Bft)
19.07.2024 17:50 30.7 C 51 % 1015.6 hPa 0.0 mm 6.7 km/h (2 Bft) W 259 1.4 UV-I 364.0 W/m 14.5 km/h (3 Bft)
19.07.2024 17:40 30.2 C 53 % 1015.7 hPa 0.0 mm 5.1 km/h (1 Bft) NW 304 1.4 UV-I 304.0 W/m 16.1 km/h (3 Bft)
19.07.2024 17:30 30.3 C 50 % 1015.7 hPa 0.0 mm 4.8 km/h (1 Bft) NW 317 1.6 UV-I 427.0 W/m 12.9 km/h (3 Bft)
19.07.2024 17:20 30.3 C 51 % 1015.8 hPa 0.0 mm 6.9 km/h (2 Bft) N-NW 336 1.7 UV-I 432.0 W/m 14.5 km/h (3 Bft)
19.07.2024 17:10 31.2 C 49 % 1015.9 hPa 0.0 mm 7.5 km/h (2 Bft) NW 312 1.7 UV-I 341.0 W/m 14.5 km/h (3 Bft)
19.07.2024 17:00 31.4 C 47 % 1016.0 hPa 0.0 mm 4.6 km/h (1 Bft) NW 325 2.2 UV-I 371.0 W/m 12.9 km/h (3 Bft)
19.07.2024 16:50 31.8 C 46 % 1016.0 hPa 0.0 mm 5.8 km/h (2 Bft) N-NW 340 2.7 UV-I 640.0 W/m 16.1 km/h (3 Bft)
19.07.2024 16:40 32.0 C 46 % 1016.1 hPa 0.0 mm 5.5 km/h (1 Bft) N-NW 327 2.9 UV-I 654.0 W/m 14.5 km/h (3 Bft)
19.07.2024 16:30 31.4 C 47 % 1016.2 hPa 0.0 mm 5.7 km/h (1 Bft) NO 38 3.1 UV-I 687.0 W/m 14.5 km/h (3 Bft)
19.07.2024 16:20 31.2 C 44 % 1016.3 hPa 0.0 mm 5.3 km/h (1 Bft) N-NO 15 3.3 UV-I 705.0 W/m 9.7 km/h (2 Bft)
19.07.2024 16:10 31.7 C 46 % 1016.4 hPa 0.0 mm 3.8 km/h (1 Bft) N 5 3.5 UV-I 719.0 W/m 14.5 km/h (3 Bft)
19.07.2024 16:00 31.3 C 43 % 1016.5 hPa 0.0 mm 3.8 km/h (1 Bft) O-NO 66 3.7 UV-I 737.0 W/m 8.0 km/h (2 Bft)
_ Min-Zeit 06:10 16:00 15:30 - 20:00 - - - - 20:00
Minimum _ 16.5 C 43 % 1009.4 hPa - 0.0 km/h (0 Bft) - - - - 0.0 km/h (0 Bft)
_ Max-Zeit 16:40 05:40 16:00 16:00 18:20 - - 13:20 13:20 18:20
Maximum _ 32.0 C 94 % 1016.5 hPa 0.0 mm 9.5 km/h
NW (2 Bft)
- - 5.6 UV-I 877.0 W/m 19.3 km/h
NW (3 Bft)
Durchschnitt _ 24.5 C 69 % 1014.1 hPa #0.0 mm 2.3 km/h (1 Bft) O - 3.7 UV-I 556.2 W/m 6.2 km/h (2 Bft)